Time;durP1;ratioP1;P1;durP2;ratioP2;P2;SDS_P1;SDS_P2;PMS_P1;PMS_P2;Temp;Humidity;BMP_temperature;BMP_pressure;BME280_temperature;BME280_humidity;BME280_pressure;Samples;Min_cycle;Max_cycle;Signal;HPM_P1;HPM_P2
2022/06/22 00:02:15;;;;;;;6.13;3.55;;;15.80;99.90;;;;;;5077023;28;20040;-71
2022/06/22 00:04:48;;;;;;;4.82;3.67;;;15.70;99.90;;;;;;5076993;28;20024;-70
2022/06/22 00:07:35;;;;;;;3.83;3.42;;;15.60;99.90;;;;;;5077568;28;20032;-71
2022/06/22 00:10:29;;;;;;;4.50;3.47;;;15.60;99.90;;;;;;5076949;28;20025;-72
2022/06/22 00:12:57;;;;;;;4.50;3.80;;;15.60;99.90;;;;;;5076980;28;20082;-70
2022/06/22 00:15:36;;;;;;;5.82;3.63;;;15.60;99.90;;;;;;5076820;28;20093;-72
2022/06/22 00:18:26;;;;;;;5.60;3.45;;;15.60;99.90;;;;;;5076919;28;20382;-71
2022/06/22 00:20:54;;;;;;;7.22;3.97;;;15.50;99.90;;;;;;5076086;28;20041;-71
2022/06/22 00:23:42;;;;;;;6.82;4.18;;;15.40;99.90;;;;;;5076802;28;20411;-72
2022/06/22 00:26:28;;;;;;;11.98;4.60;;;15.50;99.90;;;;;;5075827;28;20086;-71
2022/06/22 00:29:05;;;;;;;6.65;4.28;;;15.50;99.90;;;;;;5076564;28;20266;-71
2022/06/22 00:31:38;;;;;;;8.32;4.53;;;15.40;99.90;;;;;;5076870;28;20033;-72
2022/06/22 00:34:10;;;;;;;7.30;4.35;;;15.40;99.90;;;;;;5076784;28;20060;-72
2022/06/22 00:36:45;;;;;;;6.70;4.47;;;15.40;99.90;;;;;;5076683;28;20028;-71
2022/06/22 00:39:31;;;;;;;7.75;4.60;;;15.30;99.90;;;;;;5076836;28;20048;-72
2022/06/22 00:42:14;;;;;;;4.95;4.20;;;15.40;99.90;;;;;;5077947;28;20025;-72
2022/06/22 00:44:50;;;;;;;6.35;4.55;;;15.40;99.90;;;;;;5080694;28;20036;-72
2022/06/22 00:47:33;;;;;;;7.03;4.40;;;15.40;99.90;;;;;;5080757;28;20039;-72
2022/06/22 00:50:15;;;;;;;6.40;4.55;;;15.50;99.90;;;;;;5079909;28;20028;-71
2022/06/22 00:52:52;;;;;;;6.05;4.82;;;15.50;99.90;;;;;;5080559;28;20032;-72
2022/06/22 00:55:23;;;;;;;8.32;4.60;;;15.50;99.90;;;;;;5080471;28;20032;-72
2022/06/22 00:57:59;;;;;;;8.05;5.35;;;15.40;99.90;;;;;;5080647;28;20025;-72
2022/06/22 01:00:30;;;;;;;6.00;5.00;;;15.30;99.90;;;;;;5079976;28;20071;-71
2022/06/22 01:03:03;;;;;;;6.72;5.05;;;15.50;99.90;;;;;;5080295;28;20033;-69
2022/06/22 01:05:55;;;;;;;7.20;5.22;;;15.40;99.90;;;;;;5080617;28;20032;-71
2022/06/22 01:08:35;;;;;;;7.35;4.80;;;15.30;99.90;;;;;;5080189;28;20273;-70
2022/06/22 01:12:16;;;;;;;10.77;5.20;;;15.30;99.90;;;;;;5079380;28;20028;-70
2022/06/22 01:14:02;;;;;;;8.80;5.63;;;15.20;99.90;;;;;;5064895;28;20119;-70
2022/06/22 01:16:40;;;;;;;6.90;5.53;;;15.20;99.90;;;;;;5080038;28;20051;-70
2022/06/22 01:19:31;;;;;;;8.32;5.70;;;15.30;99.90;;;;;;5079281;28;20064;-71
2022/06/22 01:22:21;;;;;;;7.50;6.10;;;15.40;99.90;;;;;;5079191;28;20047;-71
2022/06/22 01:24:52;;;;;;;7.18;5.60;;;15.40;99.90;;;;;;5079862;28;20040;-71
2022/06/22 01:27:39;;;;;;;11.27;5.80;;;15.30;99.90;;;;;;5079835;28;20024;-71
2022/06/22 01:30:32;;;;;;;7.93;5.90;;;15.30;99.90;;;;;;5079150;28;20304;-71
2022/06/22 01:32:58;;;;;;;10.55;5.95;;;15.40;99.90;;;;;;5079779;28;20032;-71
2022/06/22 01:35:31;;;;;;;11.02;5.90;;;15.30;99.90;;;;;;5079729;28;20113;-71
2022/06/22 01:37:58;;;;;;;9.57;5.85;;;15.30;99.90;;;;;;5079465;28;20110;-70
2022/06/22 01:40:46;;;;;;;12.43;6.00;;;15.30;99.90;;;;;;5080046;28;20052;-71
2022/06/22 01:43:21;;;;;;;7.80;6.50;;;15.20;99.90;;;;;;5069285;28;20044;-70
2022/06/22 01:46:04;;;;;;;9.10;5.88;;;15.20;99.90;;;;;;5079460;28;20363;-70
2022/06/22 01:48:30;;;;;;;8.95;6.28;;;15.20;99.90;;;;;;5079507;28;20032;-70
2022/06/22 01:51:15;;;;;;;8.30;6.13;;;15.20;99.90;;;;;;5079415;28;20266;-71
2022/06/22 01:54:00;;;;;;;8.63;6.07;;;15.20;99.90;;;;;;5078115;28;20020;-71
2022/06/22 01:56:41;;;;;;;8.63;6.13;;;15.10;99.90;;;;;;5079507;28;20039;-70
2022/06/22 01:59:49;;;;;;;8.20;6.22;;;15.10;99.90;;;;;;5079192;28;20055;-70
2022/06/22 02:02:21;;;;;;;10.75;7.03;;;15.10;99.90;;;;;;5079246;28;20024;-70
2022/06/22 02:04:56;;;;;;;10.15;6.95;;;15.10;99.90;;;;;;5079188;28;20056;-70
2022/06/22 02:07:47;;;;;;;8.45;7.00;;;15.10;99.90;;;;;;5079220;28;20288;-70
2022/06/22 02:10:32;;;;;;;7.13;6.45;;;15.10;99.90;;;;;;5078398;28;20040;-71
2022/06/22 02:13:08;;;;;;;9.85;7.05;;;15.00;99.90;;;;;;5078514;28;20270;-70
2022/06/22 02:15:39;;;;;;;7.97;7.00;;;14.90;99.90;;;;;;5079062;28;20044;-70
2022/06/22 02:18:27;;;;;;;8.63;6.55;;;14.80;99.90;;;;;;5078904;28;20048;-70
2022/06/22 02:20:53;;;;;;;9.45;6.22;;;14.80;99.90;;;;;;5078964;28;20032;-70
2022/06/22 02:23:32;;;;;;;11.48;6.90;;;14.80;99.90;;;;;;5078206;28;20029;-70
2022/06/22 02:26:20;;;;;;;9.32;7.45;;;14.70;99.90;;;;;;5078825;28;20025;-69
2022/06/22 02:28:47;;;;;;;8.77;7.00;;;14.70;99.90;;;;;;5078764;28;20039;-69
2022/06/22 02:31:15;;;;;;;9.82;7.65;;;14.60;99.90;;;;;;5078663;28;20100;-70
2022/06/22 02:33:46;;;;;;;9.48;8.00;;;14.60;99.90;;;;;;5078700;28;20028;-70
2022/06/22 02:36:13;;;;;;;10.80;7.63;;;14.60;99.90;;;;;;5078626;28;20047;-71
2022/06/22 02:38:41;;;;;;;10.80;8.02;;;14.70;99.90;;;;;;5078423;28;20045;-70
2022/06/22 02:46:47;;;;;;;11.20;8.38;;;14.70;99.90;;;;;;5077655;28;20401;-70
2022/06/22 02:49:24;;;;;;;11.30;8.15;;;14.60;99.90;;;;;;5078301;28;20028;-71
2022/06/22 02:51:51;;;;;;;11.32;8.43;;;14.60;99.90;;;;;;5078305;28;20316;-71
2022/06/22 02:54:32;;;;;;;10.07;8.38;;;14.60;99.90;;;;;;5078837;28;20361;-71
2022/06/22 02:57:17;;;;;;;10.88;8.07;;;14.60;99.90;;;;;;5077325;28;20064;-71
2022/06/22 02:59:46;;;;;;;8.90;8.00;;;14.50;99.90;;;;;;5077413;28;20300;-71
2022/06/22 03:02:12;;;;;;;10.52;8.40;;;14.50;99.90;;;;;;5077386;28;20341;-71
2022/06/22 03:04:41;;;;;;;12.60;8.88;;;14.50;99.90;;;;;;5077483;28;20059;-70
2022/06/22 03:07:07;;;;;;;11.93;8.45;;;14.50;99.90;;;;;;5077858;28;20292;-71
2022/06/22 03:09:33;;;;;;;13.35;9.13;;;14.40;99.90;;;;;;5078410;28;20048;-71
2022/06/22 03:12:00;;;;;;;10.90;8.75;;;14.40;99.90;;;;;;5077711;28;20090;-71
2022/06/22 03:14:47;;;;;;;11.15;8.48;;;14.40;99.90;;;;;;5078094;28;20265;-71
2022/06/22 03:17:18;;;;;;;10.65;9.40;;;14.30;99.90;;;;;;5060311;28;20119;-72
2022/06/22 03:20:11;;;;;;;12.52;9.23;;;14.30;99.90;;;;;;5077690;28;20039;-72
2022/06/22 03:22:40;;;;;;;10.65;8.90;;;14.30;99.90;;;;;;5077598;28;20039;-71
2022/06/22 03:25:18;;;;;;;14.80;10.00;;;14.30;99.90;;;;;;5077453;28;20082;-73
2022/06/22 03:27:49;;;;;;;12.48;9.27;;;14.30;99.90;;;;;;5077783;28;20485;-72
2022/06/22 03:30:25;;;;;;;11.82;9.88;;;14.30;99.90;;;;;;5076659;28;20032;-73
2022/06/22 03:32:54;;;;;;;12.98;9.73;;;14.40;99.90;;;;;;5078018;28;20027;-72
2022/06/22 03:35:51;;;;;;;10.40;8.85;;;14.30;99.90;;;;;;5077076;28;20069;-71
2022/06/22 03:38:27;;;;;;;11.43;9.48;;;14.30;99.90;;;;;;5072646;28;20127;-72
2022/06/22 03:40:58;;;;;;;13.63;8.93;;;14.30;99.90;;;;;;5078000;28;20040;-71
2022/06/22 03:43:47;;;;;;;13.30;9.40;;;14.40;99.90;;;;;;5076684;28;20350;-71
2022/06/22 03:46:33;;;;;;;13.73;9.85;;;14.40;99.90;;;;;;5076453;28;20033;-73
2022/06/22 03:49:13;;;;;;;13.23;10.20;;;14.40;99.90;;;;;;5077222;28;20047;-73
2022/06/22 03:52:13;;;;;;;11.57;9.10;;;14.40;99.90;;;;;;5077634;28;20082;-72
2022/06/22 03:54:42;;;;;;;12.23;10.63;;;14.40;99.90;;;;;;5076486;28;20436;-71
2022/06/22 03:57:11;;;;;;;12.75;9.57;;;14.50;99.90;;;;;;5076333;28;20324;-72
2022/06/22 03:59:41;;;;;;;14.65;10.07;;;14.40;99.90;;;;;;5077121;28;20454;-71
2022/06/22 04:02:07;;;;;;;13.15;9.65;;;14.60;99.90;;;;;;5076959;28;20277;-71
2022/06/22 04:04:33;;;;;;;14.15;10.40;;;14.70;99.90;;;;;;5076962;28;20067;-72
2022/06/22 04:06:59;;;;;;;15.23;10.73;;;14.70;99.90;;;;;;5076511;28;20404;-72
2022/06/22 04:09:27;;;;;;;14.35;11.05;;;14.60;99.90;;;;;;5076224;28;20044;-72
2022/06/22 04:11:53;;;;;;;13.70;10.27;;;14.70;99.90;;;;;;5059535;28;20406;-71
2022/06/22 04:14:45;;;;;;;15.20;10.40;;;14.70;99.90;;;;;;5076506;28;20062;-71
2022/06/22 04:17:35;;;;;;;16.33;11.02;;;14.70;99.90;;;;;;5076518;28;20029;-72
2022/06/22 04:20:49;;;;;;;17.50;11.63;;;14.80;99.90;;;;;;5077005;28;20032;-72
2022/06/22 04:23:16;;;;;;;;;;;14.90;99.90;;;;;;5077175;28;20052;-72
2022/06/22 04:25:42;;;;;;;13.63;10.60;;;14.80;99.90;;;;;;5076075;28;19919;-72
2022/06/22 04:28:11;;;;;;;14.05;10.88;;;14.90;99.90;;;;;;5076774;28;20064;-71
2022/06/22 04:30:48;;;;;;;12.32;10.23;;;15.00;99.90;;;;;;5076779;28;20029;-71
2022/06/22 04:33:22;;;;;;;14.32;11.05;;;15.00;99.90;;;;;;5076799;28;20044;-72
2022/06/22 04:36:00;;;;;;;13.27;11.23;;;15.10;99.90;;;;;;5076044;28;20029;-71
2022/06/22 04:38:53;;;;;;;13.25;11.45;;;15.10;99.90;;;;;;5076596;28;20127;-72
2022/06/22 04:41:28;;;;;;;12.30;10.90;;;15.00;99.90;;;;;;5077182;28;20054;-74
2022/06/22 04:43:56;;;;;;;12.10;10.13;;;15.10;99.90;;;;;;5076042;28;20040;-72
2022/06/22 04:46:29;;;;;;;13.25;11.02;;;15.10;99.90;;;;;;5077157;28;20391;-73
2022/06/22 04:49:01;;;;;;;14.52;11.95;;;15.10;99.90;;;;;;5077071;28;20036;-72
2022/06/22 04:51:33;;;;;;;13.77;11.70;;;15.20;99.90;;;;;;5075995;28;20093;-72
2022/06/22 04:54:12;;;;;;;12.80;10.88;;;15.30;99.90;;;;;;5076927;28;20445;-71
2022/06/22 04:56:42;;;;;;;16.13;11.20;;;15.30;99.90;;;;;;5076642;28;20047;-72
2022/06/22 04:59:12;;;;;;;13.05;10.88;;;15.40;99.90;;;;;;5076626;28;20036;-71
2022/06/22 05:01:45;;;;;;;13.13;10.90;;;15.50;99.90;;;;;;5076462;28;20056;-71
2022/06/22 05:04:18;;;;;;;12.57;11.20;;;15.60;99.90;;;;;;5076802;28;20123;-71
2022/06/22 05:07:04;;;;;;;13.90;10.75;;;15.70;99.90;;;;;;5076602;28;20382;-71
2022/06/22 05:09:46;;;;;;;13.63;10.95;;;15.80;99.90;;;;;;5075683;28;20396;-71
2022/06/22 05:12:19;;;;;;;12.47;11.10;;;15.80;99.90;;;;;;5076463;28;20114;-71
2022/06/22 05:14:47;;;;;;;16.50;11.02;;;15.80;99.90;;;;;;5076333;28;20723;-71
2022/06/22 05:17:24;;;;;;;12.27;10.50;;;16.00;99.90;;;;;;5075788;28;20021;-72
2022/06/22 05:19:58;;;;;;;13.55;10.82;;;16.00;99.90;;;;;;5076453;28;20035;-71
2022/06/22 05:22:24;;;;;;;14.75;11.40;;;16.20;99.90;;;;;;5076407;28;20384;-71
2022/06/22 05:25:03;;;;;;;12.20;10.80;;;16.20;99.90;;;;;;5076270;28;20137;-73
2022/06/22 05:27:34;;;;;;;14.52;10.80;;;16.30;99.90;;;;;;5077326;28;20415;-72
2022/06/22 05:30:07;;;;;;;14.77;11.27;;;16.30;99.90;;;;;;5079955;28;20028;-71
2022/06/22 05:32:45;;;;;;;12.80;10.75;;;16.30;99.90;;;;;;5079776;28;20064;-71
2022/06/22 05:35:20;;;;;;;17.15;10.98;;;16.30;99.90;;;;;;5079208;28;20288;-72
2022/06/22 05:37:50;;;;;;;16.08;10.77;;;16.50;99.90;;;;;;5079845;28;20040;-72
2022/06/22 05:40:18;;;;;;;16.00;11.02;;;16.70;99.90;;;;;;5080314;28;20093;-72
2022/06/22 05:42:45;;;;;;;14.88;10.93;;;16.70;99.90;;;;;;5080033;28;20312;-70
2022/06/22 05:45:18;;;;;;;14.27;10.57;;;16.70;99.90;;;;;;5062655;28;20036;-71
2022/06/22 05:47:45;;;;;;;16.73;11.35;;;16.70;99.90;;;;;;5063413;28;20032;-71
2022/06/22 05:50:42;;;;;;;13.65;10.73;;;16.70;99.90;;;;;;5062805;28;20029;-71
2022/06/22 05:53:19;;;;;;;13.25;9.73;;;16.90;99.90;;;;;;5079858;28;20048;-72
2022/06/22 05:55:50;;;;;;;12.50;10.10;;;16.90;99.90;;;;;;5079408;28;20169;-70
2022/06/22 05:58:39;;;;;;;11.83;9.93;;;17.00;99.90;;;;;;5079619;28;20033;-70
2022/06/22 06:01:14;;;;;;;15.38;9.70;;;17.10;99.90;;;;;;5079752;28;20029;-69
2022/06/22 06:03:58;;;;;;;12.60;9.40;;;17.20;99.90;;;;;;5079657;28;20028;-70
2022/06/22 06:06:33;;;;;;;14.82;9.73;;;17.20;99.90;;;;;;5079481;28;20174;-68
2022/06/22 06:09:01;;;;;;;12.80;8.90;;;17.30;99.90;;;;;;5079617;28;20028;-71
2022/06/22 06:11:39;;;;;;;11.07;9.00;;;17.50;99.90;;;;;;5079624;28;20035;-69
2022/06/22 06:14:13;;;;;;;9.23;8.25;;;17.70;99.90;;;;;;5061841;28;20040;-71
2022/06/22 06:16:47;;;;;;;11.93;8.77;;;17.90;99.90;;;;;;5078815;28;20028;-68
2022/06/22 06:19:19;;;;;;;9.63;5.32;;;18.00;99.90;;;;;;5078919;28;20024;-69
2022/06/22 06:21:46;;;;;;;13.50;8.30;;;18.30;99.90;;;;;;5079027;28;20068;-71
2022/06/22 06:24:27;;;;;;;11.20;8.32;;;18.40;99.90;;;;;;5078865;28;20020;-71
2022/06/22 06:29:47;;;;;;;10.30;7.38;;;18.30;99.90;;;;;;5079211;28;20392;-71
2022/06/22 06:32:22;;;;;;;10.25;8.43;;;18.30;99.90;;;;;;5078676;28;20096;-69
2022/06/22 06:35:01;;;;;;;10.55;8.23;;;18.40;99.90;;;;;;5078747;28;20432;-72
2022/06/22 06:37:57;;;;;;;12.05;8.20;;;18.40;99.90;;;;;;5078710;28;20045;-71
2022/06/22 06:40:34;;;;;;;9.27;8.20;;;18.40;99.90;;;;;;5078229;28;20384;-71
2022/06/22 06:43:24;;;;;;;11.27;8.10;;;18.50;99.90;;;;;;5078499;28;20078;-70
2022/06/22 06:45:53;;;;;;;14.68;8.02;;;18.40;99.90;;;;;;5078412;28;20062;-70
2022/06/22 06:48:25;;;;;;;8.85;7.88;;;18.60;99.90;;;;;;5078134;28;20396;-70
2022/06/22 06:50:55;;;;;;;9.70;7.72;;;18.80;99.90;;;;;;5077368;28;20343;-71
2022/06/22 06:53:24;;;;;;;9.32;7.38;;;19.00;99.90;;;;;;5077360;28;20380;-70
2022/06/22 06:55:59;;;;;;;12.50;7.90;;;19.20;99.90;;;;;;5078063;28;20033;-70
2022/06/22 06:58:57;;;;;;;9.77;7.13;;;19.20;99.90;;;;;;5077874;28;20131;-69
2022/06/22 07:01:27;;;;;;;9.18;7.28;;;19.30;99.90;;;;;;5073649;28;20044;-72
2022/06/22 07:03:58;;;;;;;11.50;6.78;;;19.40;99.90;;;;;;5077486;28;20032;-71
2022/06/22 07:06:29;;;;;;;10.70;7.40;;;19.30;99.90;;;;;;5077919;28;20506;-71
2022/06/22 07:09:00;;;;;;;9.25;7.00;;;19.30;99.90;;;;;;5078023;28;20069;-71
2022/06/22 07:11:55;;;;;;;12.03;6.87;;;19.30;99.90;;;;;;5077819;28;20058;-70
2022/06/22 07:14:33;;;;;;;8.98;6.38;;;19.50;99.90;;;;;;5076702;28;20396;-71
2022/06/22 07:17:05;;;;;;;7.45;5.88;;;19.60;99.90;;;;;;5077011;28;20431;-71
2022/06/22 07:19:48;;;;;;;10.18;6.40;;;19.60;99.90;;;;;;5077868;28;20040;-70
2022/06/22 07:22:17;;;;;;;9.63;6.00;;;19.50;99.90;;;;;;5078270;28;20108;-70
2022/06/22 07:24:48;;;;;;;7.53;5.43;;;19.60;99.90;;;;;;5077875;28;20102;-70
2022/06/22 07:27:39;;;;;;;9.55;6.75;;;19.60;99.90;;;;;;5077632;28;20087;-70
2022/06/22 07:30:20;;;;;;;7.97;6.60;;;19.70;99.90;;;;;;5077255;28;20074;-71
2022/06/22 07:33:24;;;;;;;10.40;6.60;;;19.60;99.90;;;;;;5077733;28;20025;-71
2022/06/22 07:36:03;;;;;;;10.93;6.50;;;19.60;99.90;;;;;;5066924;28;20075;-70
2022/06/22 07:38:56;;;;;;;9.18;6.75;;;19.50;99.90;;;;;;5077536;28;20389;-71
2022/06/22 07:41:24;;;;;;;9.18;6.07;;;19.50;99.90;;;;;;5077030;28;20352;-70
2022/06/22 07:44:00;;;;;;;7.13;6.00;;;19.60;99.90;;;;;;5077465;28;20392;-70
2022/06/22 07:46:42;;;;;;;7.45;5.93;;;19.70;99.90;;;;;;5077376;28;20068;-71
2022/06/22 07:49:25;;;;;;;9.10;6.60;;;19.90;99.90;;;;;;5077640;28;20028;-70
2022/06/22 07:52:01;;;;;;;9.52;6.30;;;20.10;99.90;;;;;;5076643;28;20269;-71
2022/06/22 07:54:33;;;;;;;7.25;5.60;;;20.10;99.90;;;;;;5077594;28;20388;-69
2022/06/22 07:57:11;;;;;;;9.73;5.43;;;20.00;99.90;;;;;;5077404;28;20302;-71
2022/06/22 07:59:40;;;;;;;8.13;6.00;;;20.10;99.90;;;;;;5077153;28;20038;-70
2022/06/22 08:02:15;;;;;;;7.88;5.55;;;20.20;99.90;;;;;;5077291;28;20017;-71
2022/06/22 08:04:59;;;;;;;9.45;5.38;;;20.40;99.90;;;;;;5077384;28;20052;-72
2022/06/22 08:07:34;;;;;;;8.57;5.38;;;20.30;99.90;;;;;;5077238;28;20032;-71
2022/06/22 08:10:00;;;;;;;8.18;5.40;;;20.40;99.90;;;;;;5077257;28;20163;-72
2022/06/22 08:12:57;;;;;;;5.47;4.53;;;20.60;99.90;;;;;;5076348;28;20158;-71
2022/06/22 08:15:23;;;;;;;7.72;4.45;;;20.80;99.90;;;;;;5076271;28;20093;-71
2022/06/22 08:17:55;;;;;;;7.97;4.78;;;20.70;99.90;;;;;;5077035;28;20140;-72
2022/06/22 08:20:31;;;;;;;9.07;5.00;;;20.70;99.90;;;;;;5077247;28;20065;-71
2022/06/22 08:23:04;;;;;;;6.72;3.47;;;20.80;99.90;;;;;;5077053;28;20150;-71
2022/06/22 08:25:31;;;;;;;4.60;4.20;;;21.00;99.90;;;;;;5077333;28;20029;-73
2022/06/22 08:27:57;;;;;;;6.20;4.00;;;21.10;99.90;;;;;;5077078;28;20021;-70
2022/06/22 08:30:23;;;;;;;11.70;4.47;;;21.30;99.90;;;;;;5077663;28;20037;-72
2022/06/22 08:32:55;;;;;;;4.78;3.95;;;21.30;99.90;;;;;;5077183;28;20420;-72
2022/06/22 08:35:26;;;;;;;7.13;3.28;;;21.30;99.90;;;;;;5077414;28;20119;-70
2022/06/22 08:37:55;;;;;;;6.93;3.67;;;21.30;99.90;;;;;;5077083;28;20055;-72
2022/06/22 08:40:44;;;;;;;5.15;3.40;;;21.30;99.90;;;;;;5059770;28;20086;-72
2022/06/22 08:43:16;;;;;;;5.80;3.90;;;21.30;99.90;;;;;;5077225;28;20056;-70
2022/06/22 08:46:15;;;;;;;10.40;4.10;;;21.40;99.90;;;;;;5076589;28;20029;-73
2022/06/22 08:49:00;;;;;;;8.10;4.07;;;21.60;99.90;;;;;;5077417;28;20487;-72
2022/06/22 08:51:48;;;;;;;3.97;3.33;;;21.60;99.90;;;;;;5077373;28;20285;-72
2022/06/22 08:54:14;;;;;;;8.15;3.00;;;21.70;99.90;;;;;;5077607;28;20320;-72
2022/06/22 08:57:03;;;;;;;6.00;3.40;;;21.70;99.90;;;;;;5077078;28;20043;-71
2022/06/22 08:59:53;;;;;;;4.07;3.03;;;21.80;99.90;;;;;;5077005;28;20112;-72
2022/06/22 09:02:59;;;;;;;4.18;2.50;;;22.00;99.90;;;;;;5077309;28;20416;-72
2022/06/22 09:05:53;;;;;;;5.95;3.33;;;22.20;99.90;;;;;;5076275;28;20121;-73
2022/06/22 09:08:35;;;;;;;6.93;2.97;;;22.20;99.90;;;;;;5081245;28;20033;-73
2022/06/22 09:11:10;;;;;;;6.03;3.00;;;22.20;99.90;;;;;;5080425;28;20029;-71
2022/06/22 09:14:04;;;;;;;4.15;2.67;;;22.40;99.90;;;;;;5080298;28;20020;-71
2022/06/22 09:16:54;;;;;;;4.85;3.00;;;22.70;99.90;;;;;;5080642;28;20329;-71
2022/06/22 09:19:32;;;;;;;5.07;2.90;;;22.70;99.90;;;;;;5081235;28;20115;-72
2022/06/22 09:22:25;;;;;;;4.05;3.15;;;22.70;99.90;;;;;;5081898;28;20051;-73
2022/06/22 09:25:07;;;;;;;5.32;2.78;;;22.60;99.90;;;;;;5081902;28;20059;-72
2022/06/22 09:27:41;;;;;;;3.67;2.22;;;22.60;99.90;;;;;;5083423;28;20017;-72
2022/06/22 09:30:28;;;;;;;6.43;2.40;;;22.80;99.90;;;;;;5081982;28;20292;-72
2022/06/22 09:33:06;;;;;;;6.60;3.00;;;23.00;99.90;;;;;;5079927;28;20028;-71
2022/06/22 09:35:54;;;;;;;6.60;2.63;;;23.00;99.90;;;;;;5080401;28;20025;-71
2022/06/22 09:38:47;;;;;;;5.95;2.58;;;22.90;99.90;;;;;;5079930;28;20446;-72
2022/06/22 09:41:19;;;;;;;;;;;22.90;99.90;;;;;;5079458;28;20382;-71
2022/06/22 09:44:00;;;;;;;5.20;2.65;;;23.00;99.90;;;;;;5079594;28;19912;-70
2022/06/22 09:46:41;;;;;;;6.07;2.72;;;23.20;99.90;;;;;;5079613;28;20037;-71
2022/06/22 09:49:26;;;;;;;3.95;2.90;;;23.40;99.90;;;;;;5079700;28;20056;-71
2022/06/22 09:52:09;;;;;;;9.32;2.85;;;23.60;99.90;;;;;;5079250;28;20381;-71
2022/06/22 09:58:25;;;;;;;5.40;2.53;;;23.20;99.90;;;;;;5077964;28;20044;-68
2022/06/22 10:00:58;;;;;;;6.80;2.75;;;23.30;99.90;;;;;;5080230;28;20115;-69
2022/06/22 10:03:48;;;;;;;6.30;2.13;;;23.60;99.90;;;;;;5079692;28;20048;-70
2022/06/22 10:07:01;;;;;;;6.25;2.40;;;23.60;99.90;;;;;;5079234;28;20114;-70
2022/06/22 10:09:33;;;;;;;4.50;2.60;;;23.80;99.90;;;;;;5074533;28;20044;-70
2022/06/22 10:12:17;;;;;;;4.50;2.30;;;23.80;99.90;;;;;;5079260;28;20115;-71
2022/06/22 10:14:55;;;;;;;5.20;2.25;;;23.60;99.90;;;;;;5078122;28;20024;-68
2022/06/22 10:17:31;;;;;;;3.67;2.30;;;23.80;99.90;;;;;;5078488;28;20299;-69
2022/06/22 10:20:14;;;;;;;3.70;2.13;;;24.10;99.90;;;;;;5078465;28;20043;-70
2022/06/22 10:23:08;;;;;;;3.55;2.00;;;24.40;99.90;;;;;;5078147;28;20032;-70
2022/06/22 10:26:19;;;;;;;6.00;2.78;;;24.60;99.90;;;;;;5078884;28;20089;-72
2022/06/22 10:29:20;;;;;;;5.97;2.40;;;24.50;99.90;;;;;;5069135;28;20055;-67
2022/06/22 10:32:06;;;;;;;3.38;2.33;;;24.60;99.90;;;;;;5068524;28;20048;-68
2022/06/22 10:34:54;;;;;;;5.03;2.05;;;24.90;99.90;;;;;;5078632;28;20029;-69
2022/06/22 10:37:28;;;;;;;4.72;2.35;;;24.90;99.90;;;;;;5077975;28;20115;-69
2022/06/22 10:40:11;;;;;;;3.58;1.80;;;25.00;99.90;;;;;;5078810;28;20047;-69
2022/06/22 10:45:48;;;;;;;8.20;2.33;;;25.00;99.90;;;;;;5078478;28;20029;-68
2022/06/22 10:48:14;;;;;;;6.03;2.30;;;25.00;99.90;;;;;;5078206;28;20024;-69
2022/06/22 10:50:40;;;;;;;4.35;1.92;;;25.00;99.90;;;;;;5077685;28;20270;-69
2022/06/22 10:53:27;;;;;;;5.32;2.20;;;25.10;99.90;;;;;;5078548;28;20028;-70
2022/06/22 10:56:07;;;;;;;3.83;1.90;;;25.10;99.90;;;;;;5078466;28;20029;-71
2022/06/22 10:58:42;;;;;;;5.70;1.30;;;25.00;99.90;;;;;;5078836;28;20327;-70
2022/06/22 11:01:50;;;;;;;6.10;1.63;;;25.20;99.90;;;;;;5078278;28;20028;-70
2022/06/22 11:04:54;;;;;;;3.50;1.55;;;25.30;99.90;;;;;;5078676;28;20060;-71
2022/06/22 11:07:25;;;;;;;2.03;1.83;;;25.70;99.90;;;;;;5078117;28;20081;-70
2022/06/22 11:10:01;;;;;;;4.90;1.75;;;26.20;99.90;;;;;;5078072;28;20324;-69
2022/06/22 11:12:52;;;;;;;4.97;2.10;;;27.50;99.90;;;;;;5078311;28;20037;-69
2022/06/22 11:16:05;;;;;;;3.10;1.77;;;29.70;99.90;;;;;;5078284;28;20107;-69
2022/06/22 11:18:47;;;;;;;3.47;1.10;;;31.20;96.40;;;;;;5073624;28;20044;-71
2022/06/22 11:21:16;;;;;;;6.07;1.60;;;31.80;91.70;;;;;;5078251;28;20037;-70
2022/06/22 11:23:44;;;;;;;2.58;1.15;;;31.30;86.80;;;;;;5077710;28;20090;-70
2022/06/22 11:32:12;;;;;;;4.47;1.75;;;32.10;86.10;;;;;;5077879;28;20067;-70
2022/06/22 11:34:45;;;;;;;5.57;1.75;;;33.50;80.00;;;;;;5077971;28;20040;-66
2022/06/22 11:37:42;;;;;;;4.55;1.52;;;33.90;76.00;;;;;;5077731;28;20457;-70
2022/06/22 11:40:35;;;;;;;4.85;1.60;;;34.90;71.90;;;;;;5077851;28;20090;-71
2022/06/22 11:43:29;;;;;;;4.10;1.58;;;35.20;67.40;;;;;;5077542;28;20039;-66
2022/06/22 11:46:19;;;;;;;5.07;1.25;;;34.50;63.80;;;;;;5075173;28;20355;-72
2022/06/22 11:49:16;;;;;;;3.53;1.35;;;34.60;62.70;;;;;;5077859;28;20395;-71
2022/06/22 11:51:57;;;;;;;3.90;1.83;;;35.50;59.90;;;;;;5077778;28;20033;-70
2022/06/22 11:55:08;;;;;;;4.97;1.70;;;37.00;59.00;;;;;;5076495;28;20037;-66
2022/06/22 11:58:05;;;;;;;2.70;1.25;;;37.30;56.20;;;;;;5077313;28;20382;-72
2022/06/22 12:00:58;;;;;;;6.32;1.20;;;36.40;56.60;;;;;;5077487;28;20029;-71
2022/06/22 12:04:00;;;;;;;4.78;1.48;;;37.00;55.50;;;;;;5076966;28;20083;-69
2022/06/22 12:06:51;;;;;;;6.63;1.52;;;36.90;54.20;;;;;;5077285;28;20108;-71
2022/06/22 12:09:35;;;;;;;3.60;1.10;;;37.10;52.50;;;;;;5076550;28;20028;-72
2022/06/22 12:12:32;;;;;;;3.90;1.40;;;36.50;52.00;;;;;;5078300;28;20044;-71
2022/06/22 12:15:32;;;;;;;3.22;1.55;;;35.90;52.40;;;;;;5077352;28;20033;-74
2022/06/22 12:18:11;;;;;;;3.60;1.30;;;35.00;52.20;;;;;;5077090;28;20032;-71
2022/06/22 12:20:54;;;;;;;4.18;1.30;;;35.60;52.60;;;;;;5077171;28;20293;-71
2022/06/22 12:23:36;;;;;;;3.33;1.30;;;36.50;51.60;;;;;;5076254;28;20037;-71
2022/06/22 12:26:04;;;;;;;;;;;37.40;50.30;;;;;;5077343;28;20090;-69
2022/06/22 12:28:57;;;;;;;3.38;1.15;;;36.40;50.80;;;;;;5076688;28;19919;-67
2022/06/22 12:31:30;;;;;;;3.30;1.73;;;38.00;50.50;;;;;;5075984;28;20115;-71
2022/06/22 12:34:18;;;;;;;3.60;1.45;;;39.00;46.70;;;;;;5077152;28;20073;-71
2022/06/22 12:36:50;;;;;;;3.08;1.27;;;37.70;47.80;;;;;;5076084;28;20032;-71
2022/06/22 12:39:24;;;;;;;4.43;1.02;;;38.00;47.60;;;;;;5080297;28;20040;-71
2022/06/22 12:41:53;;;;;;;3.45;1.60;;;39.20;46.90;;;;;;5081152;28;20028;-71
2022/06/22 12:44:21;;;;;;;4.03;1.33;;;38.60;45.70;;;;;;5080956;28;20320;-71
2022/06/22 12:47:05;;;;;;;2.50;1.20;;;38.50;45.50;;;;;;5080636;28;20058;-71
2022/06/22 12:49:58;;;;;;;2.92;1.33;;;39.40;43.80;;;;;;5080265;28;20086;-71
2022/06/22 12:52:43;;;;;;;3.08;1.30;;;39.40;43.80;;;;;;5063062;28;20396;-70
2022/06/22 12:55:14;;;;;;;3.97;1.42;;;40.50;43.60;;;;;;5081273;28;20396;-69
2022/06/22 12:57:49;;;;;;;3.53;1.38;;;41.10;41.50;;;;;;5080581;28;20421;-71
2022/06/22 13:00:18;;;;;;;2.15;1.10;;;40.80;42.00;;;;;;5080855;28;20051;-71
2022/06/22 13:02:46;;;;;;;3.97;1.33;;;40.60;42.40;;;;;;5079747;28;20036;-70
2022/06/22 13:05:14;;;;;;;4.88;1.58;;;41.00;40.00;;;;;;5080296;28;20029;-70
2022/06/22 13:07:44;;;;;;;4.50;1.50;;;41.60;38.50;;;;;;5080694;28;20043;-72
2022/06/22 13:10:19;;;;;;;3.50;1.23;;;41.00;40.20;;;;;;5080734;28;20032;-69
2022/06/22 13:13:37;;;;;;;4.22;1.40;;;41.70;38.90;;;;;;5079717;28;20049;-73
2022/06/22 13:16:14;;;;;;;4.28;1.60;;;42.40;38.60;;;;;;5046621;28;20048;-73
2022/06/22 13:18:43;;;;;;;3.85;1.50;;;42.60;37.30;;;;;;5080162;28;20029;-73
2022/06/22 13:21:30;;;;;;;7.10;1.50;;;43.30;37.00;;;;;;5063383;28;20079;-73
2022/06/22 13:24:18;;;;;;;9.25;1.40;;;41.70;38.10;;;;;;5081295;28;20063;-71
2022/06/22 13:26:46;;;;;;;2.65;1.00;;;42.10;37.90;;;;;;5080417;28;20097;-74
2022/06/22 13:29:38;;;;;;;2.58;1.50;;;41.20;38.20;;;;;;5080879;28;20025;-72
2022/06/22 13:32:10;;;;;;;2.35;1.20;;;39.70;38.30;;;;;;5081098;28;20029;-68
2022/06/22 13:34:59;;;;;;;2.83;0.98;;;39.30;39.20;;;;;;5063612;28;20118;-68
2022/06/22 13:37:58;;;;;;;3.88;1.00;;;40.50;38.90;;;;;;5079688;28;20076;-69
2022/06/22 13:40:54;;;;;;;3.13;0.90;;;41.50;36.60;;;;;;5079950;28;20028;-71
2022/06/22 13:43:54;;;;;;;2.15;0.90;;;41.70;36.40;;;;;;5079649;28;20337;-71
2022/06/22 13:46:38;;;;;;;4.65;1.10;;;41.50;36.00;;;;;;5078887;28;20043;-71
2022/06/22 13:49:13;;;;;;;1.80;1.00;;;40.90;36.10;;;;;;5080289;28;20112;-72
2022/06/22 13:52:15;;;;;;;1.80;0.90;;;41.30;36.90;;;;;;5079933;28;20067;-73
2022/06/22 13:54:48;;;;;;;2.15;0.93;;;42.10;35.40;;;;;;5078729;28;20039;-72
2022/06/22 13:57:38;;;;;;;2.95;1.02;;;42.40;36.60;;;;;;5079573;28;20311;-72
2022/06/22 14:00:22;;;;;;;3.75;0.90;;;41.90;35.50;;;;;;5079550;28;20043;-71
2022/06/22 14:03:22;;;;;;;2.83;0.80;;;42.70;35.30;;;;;;5078500;28;20068;-68
2022/06/22 14:05:53;;;;;;;3.65;1.10;;;44.80;34.40;;;;;;5075533;28;20070;-68
2022/06/22 14:08:37;;;;;;;;;;;44.80;32.00;;;;;;5079646;28;20296;-71